Breesport, New York
Current Conditions -  °F | °C
As of 9:53 PM on Wednesday 22 Oct 2014 (Local Time) from KELM Reporting Station
Overcast Overcast  
Wind Chill: 44°   Ceiling: 1300
Heat Index: 49°   Visibility: 10mi
Dew Point: 44°   Wind: 12mph
Humidity: 83%   Direction: 360°N
Pressure: 30.09"   Gusts: 25mph
Location:  42.17°N, 76.73°W
Report Text: KELM 230153Z 36010G22KT 10SM OVC013 09/07 A3009 RMK AO2 SLP192 T00940067
Loading
Personal Weather Stations






























Interactive Weather Map
Tropical Storm Tracking
New forecast layout! Learn more

10-Day Weather Forecast

Advertisements
Track Severe Weather on mobile